createdAt,value
2019-01-17T00:01:42.450Z,65.26
2019-01-17T00:07:54.977Z,64.56
2019-01-17T00:13:03.429Z,64.71
2019-01-17T00:18:29.888Z,64.51
2019-01-17T00:23:38.116Z,64.86
2019-01-17T00:28:52.332Z,63.77
2019-01-17T00:34:03.767Z,63.89
2019-01-17T00:39:12.592Z,64.17
2019-01-17T00:44:21.090Z,64.67
2019-01-17T00:49:30.488Z,64.10
2019-01-17T00:54:42.752Z,64.30
2019-01-17T00:59:51.369Z,64.64
2019-01-17T01:07:04.913Z,64.45
2019-01-17T01:12:20.299Z,64.81
2019-01-17T01:17:27.742Z,65.20
2019-01-17T01:22:38.994Z,64.97
2019-01-17T01:27:47.743Z,64.90
2019-01-17T01:32:56.148Z,65.01
2019-01-17T01:38:10.579Z,65.86
2019-01-17T01:43:19.012Z,65.28
2019-01-17T01:48:27.692Z,65.69
2019-01-17T01:53:30.937Z,64.70
2019-01-17T01:58:34.140Z,65.47
2019-01-17T02:03:37.393Z,65.21
2019-01-17T02:08:40.647Z,66.34
2019-01-17T02:13:43.910Z,66.23
2019-01-17T02:18:47.115Z,67.15
2019-01-17T02:23:50.453Z,67.14
2019-01-17T02:28:53.697Z,66.50
2019-01-17T02:33:57.056Z,66.14
2019-01-17T02:39:00.266Z,65.93
2019-01-17T02:44:03.498Z,66.29
2019-01-17T02:49:06.747Z,67.02
2019-01-17T02:54:09.991Z,65.89
2019-01-17T02:59:13.230Z,66.88
2019-01-17T03:04:16.462Z,66.22
2019-01-17T03:09:19.825Z,66.06
2019-01-17T03:14:23.187Z,66.13
2019-01-17T03:19:26.417Z,65.97
2019-01-17T03:24:29.668Z,65.67
2019-01-17T03:29:33.093Z,66.18
2019-01-17T03:34:36.314Z,66.32
2019-01-17T03:39:39.545Z,65.86
2019-01-17T03:44:42.773Z,65.95
2019-01-17T03:49:46.001Z,65.93
2019-01-17T03:54:52.842Z,65.56
2019-01-17T03:59:52.637Z,65.63
2019-01-17T04:04:55.849Z,65.38
2019-01-17T04:09:59.066Z,64.84
2019-01-17T04:15:02.482Z,64.90
2019-01-17T04:20:07.559Z,64.61
2019-01-17T04:25:11.032Z,64.37
2019-01-17T04:30:17.214Z,64.46
2019-01-17T04:35:20.431Z,64.11
2019-01-17T04:40:23.662Z,64.00
2019-01-17T04:45:26.871Z,64.33
2019-01-17T04:50:30.128Z,64.54
2019-01-17T04:55:33.355Z,64.76
2019-01-17T05:00:36.668Z,64.87
2019-01-17T05:05:39.978Z,64.84
2019-01-17T05:10:43.192Z,63.54
2019-01-17T05:15:46.475Z,63.68
2019-01-17T05:20:49.875Z,63.42
2019-01-17T05:25:53.234Z,63.61
2019-01-17T05:30:56.480Z,63.77
2019-01-17T05:35:59.917Z,63.67
2019-01-17T05:41:03.164Z,64.20
2019-01-17T05:46:06.393Z,64.42
2019-01-17T05:51:09.617Z,64.09
2019-01-17T05:56:12.862Z,64.29
2019-01-17T06:01:16.204Z,64.33
2019-01-17T06:06:22.743Z,64.84
2019-01-17T06:11:26.139Z,64.48
2019-01-17T06:16:29.399Z,63.69
2019-01-17T06:21:32.634Z,64.30
2019-01-17T06:26:35.858Z,64.10
2019-01-17T06:31:39.087Z,64.21
2019-01-17T06:36:42.361Z,64.25
2019-01-17T06:41:45.784Z,64.39
2019-01-17T06:46:49.205Z,64.17
2019-01-17T06:51:52.611Z,64.41
2019-01-17T06:56:56.057Z,64.24
2019-01-17T07:01:59.335Z,64.13
2019-01-17T07:07:02.585Z,63.85
2019-01-17T07:12:06.958Z,64.33
2019-01-17T07:17:10.180Z,64.52
2019-01-17T07:22:13.418Z,64.83
2019-01-17T07:27:16.697Z,65.36
2019-01-17T07:32:19.921Z,64.46
2019-01-17T07:37:23.212Z,64.40
2019-01-17T07:42:26.464Z,64.43
2019-01-17T07:47:29.672Z,64.52
2019-01-17T07:52:32.935Z,64.84
2019-01-17T07:57:36.167Z,64.81
2019-01-17T08:02:40.366Z,64.74
2019-01-17T08:07:43.588Z,64.53
2019-01-17T08:12:46.853Z,64.41
2019-01-17T08:17:50.239Z,65.00
2019-01-17T08:22:53.877Z,64.56
2019-01-17T08:27:57.111Z,64.60
2019-01-17T08:33:00.529Z,65.37
2019-01-17T08:38:03.818Z,65.09
2019-01-17T08:43:07.173Z,64.63
2019-01-17T08:48:10.456Z,64.81
2019-01-17T08:53:13.712Z,64.60
2019-01-17T08:58:16.964Z,65.03
2019-01-17T09:03:20.258Z,64.41
2019-01-17T09:08:23.689Z,64.27
2019-01-17T09:13:26.965Z,64.71
2019-01-17T09:18:30.423Z,65.01
2019-01-17T09:23:33.690Z,65.18
2019-01-17T09:28:36.964Z,64.94
2019-01-17T09:33:40.342Z,65.33
2019-01-17T09:38:43.608Z,65.12
2019-01-17T09:43:46.867Z,65.68
2019-01-17T09:48:50.220Z,65.79
2019-01-17T09:53:53.439Z,64.65
2019-01-17T09:58:56.691Z,64.34
2019-01-17T10:03:59.968Z,64.37
2019-01-17T10:09:03.243Z,63.67
2019-01-17T10:14:06.678Z,63.24
2019-01-17T10:19:23.508Z,62.72
2019-01-17T10:24:50.412Z,62.63
2019-01-17T10:30:06.416Z,62.33
2019-01-17T10:35:33.502Z,61.68
2019-01-17T10:40:53.633Z,61.04
2019-01-17T10:46:08.149Z,61.22
2019-01-17T10:51:28.390Z,61.49
2019-01-17T10:58:48.667Z,61.68
2019-01-17T11:04:02.980Z,60.88
2019-01-17T11:10:06.367Z,61.29
2019-01-17T11:15:25.859Z,60.04
2019-01-17T11:20:52.215Z,58.63
2019-01-17T11:27:09.308Z,57.89
2019-01-17T11:32:21.814Z,58.89
2019-01-17T11:37:42.372Z,58.41
2019-01-17T11:43:00.220Z,57.46
2019-01-17T11:48:20.217Z,57.40
2019-01-17T11:55:33.608Z,57.48
2019-01-17T12:00:46.966Z,56.54
2019-01-17T12:05:50.296Z,56.96
2019-01-17T12:10:53.530Z,56.10
2019-01-17T12:15:56.887Z,56.39
2019-01-17T12:21:00.109Z,56.65
2019-01-17T12:26:04.546Z,56.10
2019-01-17T12:31:07.807Z,55.78
2019-01-17T12:36:11.107Z,56.73
2019-01-17T12:41:14.337Z,56.58
2019-01-17T12:46:17.615Z,56.42
2019-01-17T12:51:20.850Z,56.52
2019-01-17T12:56:24.260Z,56.31
2019-01-17T13:01:27.516Z,57.40
2019-01-17T13:06:30.733Z,57.30
2019-01-17T13:11:34.061Z,57.49
2019-01-17T13:16:37.475Z,58.32
2019-01-17T13:21:40.732Z,58.78
2019-01-17T13:26:43.977Z,59.48
2019-01-17T13:31:47.362Z,59.61
2019-01-17T13:36:50.581Z,60.38
2019-01-17T13:41:53.891Z,61.48
2019-01-17T13:46:57.275Z,64.48
2019-01-17T13:52:00.547Z,66.73
2019-01-17T13:57:07.438Z,66.86
2019-01-17T14:02:07.191Z,65.94
2019-01-17T14:07:10.537Z,66.28
2019-01-17T14:12:13.904Z,65.89
2019-01-17T14:17:17.133Z,66.55
2019-01-17T14:22:20.544Z,66.92
2019-01-17T14:27:23.935Z,65.69
2019-01-17T14:32:27.473Z,66.07
2019-01-17T14:37:30.697Z,65.51
2019-01-17T14:42:34.023Z,65.25
2019-01-17T14:47:37.384Z,65.29
2019-01-17T14:52:41.202Z,64.58
2019-01-17T14:57:44.602Z,64.51
2019-01-17T15:02:47.845Z,63.79
2019-01-17T15:07:51.175Z,63.81
2019-01-17T15:12:54.649Z,64.02
2019-01-17T15:17:58.150Z,63.94
2019-01-17T15:23:01.513Z,64.60
2019-01-17T15:28:05.880Z,64.43
2019-01-17T15:33:08.600Z,64.70
2019-01-17T15:38:12.016Z,65.27
2019-01-17T15:43:16.387Z,64.75
2019-01-17T15:48:19.792Z,64.45
2019-01-17T15:53:23.109Z,64.57
2019-01-17T15:58:26.588Z,64.89
2019-01-17T16:03:29.935Z,65.15
2019-01-17T16:08:33.382Z,65.40
2019-01-17T16:13:36.797Z,65.83
2019-01-17T16:18:40.120Z,65.38
2019-01-17T16:23:43.474Z,66.10
2019-01-17T16:28:46.967Z,66.05
2019-01-17T16:33:50.291Z,65.92
2019-01-17T16:38:53.777Z,67.59
2019-01-17T16:43:57.102Z,66.87
2019-01-17T16:49:00.516Z,66.67
2019-01-17T16:54:04.040Z,68.32
2019-01-17T16:59:07.464Z,67.47
2019-01-17T17:04:10.894Z,67.67
2019-01-17T17:09:14.380Z,67.93
2019-01-17T17:14:17.726Z,67.20
2019-01-17T17:19:21.301Z,67.04
2019-01-17T17:24:24.657Z,67.06
2019-01-17T17:29:28.108Z,66.42
2019-01-17T17:34:31.445Z,65.38
2019-01-17T17:39:34.952Z,65.47
2019-01-17T17:44:38.304Z,66.26
2019-01-17T17:49:41.821Z,65.65
2019-01-17T17:54:45.197Z,65.27
2019-01-17T17:59:48.532Z,64.63
2019-01-17T18:04:51.967Z,64.69
2019-01-17T18:09:56.168Z,64.70
2019-01-17T18:15:00.688Z,64.52
2019-01-17T18:20:05.124Z,63.44
2019-01-17T18:25:08.503Z,63.55
2019-01-17T18:30:16.045Z,61.22
2019-01-17T18:35:19.648Z,62.55
2019-01-17T18:40:23.154Z,62.40
2019-01-17T18:45:26.967Z,62.80
2019-01-17T18:50:31.254Z,62.06
2019-01-17T18:55:34.691Z,62.80
2019-01-17T19:00:38.087Z,62.64
2019-01-17T19:05:41.523Z,62.99
2019-01-17T19:10:45.064Z,62.57
2019-01-17T19:15:48.831Z,62.42
2019-01-17T19:20:52.254Z,62.35
2019-01-17T19:25:55.678Z,62.68
2019-01-17T19:30:59.147Z,62.05
2019-01-17T19:36:02.544Z,63.13
2019-01-17T19:41:06.001Z,64.76
2019-01-17T19:46:09.814Z,65.81
2019-01-17T19:51:13.432Z,66.30
2019-01-17T19:56:17.289Z,68.26
2019-01-17T20:01:20.957Z,68.84
2019-01-17T20:06:24.418Z,69.12
2019-01-17T20:11:28.013Z,69.53
2019-01-17T20:16:31.580Z,69.83
2019-01-17T20:21:35.504Z,69.70
2019-01-17T20:26:38.888Z,70.09
2019-01-17T20:31:42.440Z,69.95
2019-01-17T20:36:46.080Z,70.02
2019-01-17T20:41:49.529Z,69.96
2019-01-17T20:46:53.136Z,70.00
2019-01-17T20:51:57.433Z,69.94
2019-01-17T20:57:01.116Z,70.26
2019-01-17T21:02:10.184Z,70.48
2019-01-17T21:07:13.528Z,70.48
2019-01-17T21:12:17.559Z,70.36
2019-01-17T21:17:21.106Z,69.65
2019-01-17T21:22:24.583Z,70.42
2019-01-17T21:27:27.888Z,69.81
2019-01-17T21:32:31.285Z,69.85
2019-01-17T21:37:35.773Z,70.44
2019-01-17T21:42:39.223Z,70.27
2019-01-17T21:47:42.556Z,70.07
2019-01-17T21:52:45.943Z,70.31
2019-01-17T21:57:49.508Z,70.64
2019-01-17T22:02:52.807Z,70.15
2019-01-17T22:07:56.604Z,70.61
2019-01-17T22:13:00.103Z,70.69
2019-01-17T22:18:03.515Z,70.29
2019-01-17T22:23:06.824Z,70.86
2019-01-17T22:28:10.487Z,70.82
2019-01-17T22:33:13.933Z,70.75
2019-01-17T22:38:17.354Z,70.55
2019-01-17T22:43:20.774Z,70.20
2019-01-17T22:48:24.070Z,70.33
2019-01-17T22:53:27.344Z,70.25
2019-01-17T22:58:30.767Z,69.80
2019-01-17T23:03:39.752Z,68.84
2019-01-17T23:08:43.164Z,67.83
2019-01-17T23:13:46.452Z,67.54
2019-01-17T23:18:49.846Z,65.94
2019-01-17T23:23:53.183Z,66.52
2019-01-17T23:28:56.508Z,66.44
2019-01-17T23:33:59.828Z,67.06
2019-01-17T23:39:03.183Z,66.95
2019-01-17T23:44:06.518Z,67.03
2019-01-17T23:49:09.807Z,66.91
2019-01-17T23:54:13.109Z,66.77
2019-01-17T23:59:22.471Z,66.07
